sensor_id;sensor_type;location;lat;lon;timestamp;P1;durP1;ratioP1;P2;durP2;ratioP2
46597;SDS011;32318;48.858;8.252;2022-10-26T00:04:23;7.30;;;2.00;;
46597;SDS011;32318;48.858;8.252;2022-10-26T00:12:24;11.15;;;2.13;;
46597;SDS011;32318;48.858;8.252;2022-10-26T00:20:24;12.93;;;2.65;;
46597;SDS011;32318;48.858;8.252;2022-10-26T00:28:24;4.40;;;2.00;;
46597;SDS011;32318;48.858;8.252;2022-10-26T00:36:25;9.07;;;2.05;;
46597;SDS011;32318;48.858;8.252;2022-10-26T00:52:48;10.45;;;2.10;;
46597;SDS011;32318;48.858;8.252;2022-10-26T01:00:50;13.68;;;2.00;;
46597;SDS011;32318;48.858;8.252;2022-10-26T01:08:50;15.45;;;2.28;;
46597;SDS011;32318;48.858;8.252;2022-10-26T01:33:42;11.13;;;2.10;;
46597;SDS011;32318;48.858;8.252;2022-10-26T01:41:47;8.52;;;2.10;;
46597;SDS011;32318;48.858;8.252;2022-10-26T01:49:51;9.07;;;2.10;;
46597;SDS011;32318;48.858;8.252;2022-10-26T01:57:54;7.13;;;2.88;;
46597;SDS011;32318;48.858;8.252;2022-10-26T02:06:10;9.85;;;2.60;;
46597;SDS011;32318;48.858;8.252;2022-10-26T02:23:00;12.20;;;2.90;;
46597;SDS011;32318;48.858;8.252;2022-10-26T02:31:04;8.25;;;2.60;;
46597;SDS011;32318;48.858;8.252;2022-10-26T02:39:06;9.38;;;2.60;;
46597;SDS011;32318;48.858;8.252;2022-10-26T02:47:09;10.82;;;3.00;;
46597;SDS011;32318;48.858;8.252;2022-10-26T02:55:11;9.82;;;3.33;;
46597;SDS011;32318;48.858;8.252;2022-10-26T03:03:17;7.68;;;2.80;;
46597;SDS011;32318;48.858;8.252;2022-10-26T03:11:19;9.50;;;2.65;;
46597;SDS011;32318;48.858;8.252;2022-10-26T03:19:19;5.72;;;2.92;;
46597;SDS011;32318;48.858;8.252;2022-10-26T03:27:19;15.23;;;3.67;;
46597;SDS011;32318;48.858;8.252;2022-10-26T03:35:20;9.83;;;2.73;;
46597;SDS011;32318;48.858;8.252;2022-10-26T03:43:20;7.03;;;2.92;;
46597;SDS011;32318;48.858;8.252;2022-10-26T03:51:21;13.68;;;2.72;;
46597;SDS011;32318;48.858;8.252;2022-10-26T03:59:21;7.47;;;2.72;;
46597;SDS011;32318;48.858;8.252;2022-10-26T04:07:21;7.82;;;2.88;;
46597;SDS011;32318;48.858;8.252;2022-10-26T04:15:22;16.33;;;2.50;;
46597;SDS011;32318;48.858;8.252;2022-10-26T04:23:22;18.90;;;2.53;;
46597;SDS011;32318;48.858;8.252;2022-10-26T04:31:22;9.35;;;2.33;;
46597;SDS011;32318;48.858;8.252;2022-10-26T04:39:23;9.73;;;1.90;;
46597;SDS011;32318;48.858;8.252;2022-10-26T04:47:24;8.10;;;2.33;;
46597;SDS011;32318;48.858;8.252;2022-10-26T04:55:25;13.82;;;2.47;;
46597;SDS011;32318;48.858;8.252;2022-10-26T05:03:25;8.00;;;2.17;;
46597;SDS011;32318;48.858;8.252;2022-10-26T05:11:25;19.35;;;3.15;;
46597;SDS011;32318;48.858;8.252;2022-10-26T05:19:25;6.85;;;2.28;;
46597;SDS011;32318;48.858;8.252;2022-10-26T05:27:26;12.38;;;2.97;;
46597;SDS011;32318;48.858;8.252;2022-10-26T05:35:26;9.02;;;2.72;;
46597;SDS011;32318;48.858;8.252;2022-10-26T05:43:26;13.02;;;3.22;;
46597;SDS011;32318;48.858;8.252;2022-10-26T05:51:27;15.33;;;4.50;;
46597;SDS011;32318;48.858;8.252;2022-10-26T05:59:27;17.35;;;4.75;;
46597;SDS011;32318;48.858;8.252;2022-10-26T06:07:28;19.98;;;5.70;;
46597;SDS011;32318;48.858;8.252;2022-10-26T06:15:29;18.83;;;5.53;;
46597;SDS011;32318;48.858;8.252;2022-10-26T06:23:54;11.73;;;4.60;;
46597;SDS011;32318;48.858;8.252;2022-10-26T06:32:01;13.27;;;4.07;;
46597;SDS011;32318;48.858;8.252;2022-10-26T06:40:02;11.60;;;3.80;;
46597;SDS011;32318;48.858;8.252;2022-10-26T06:48:06;10.20;;;3.83;;
46597;SDS011;32318;48.858;8.252;2022-10-26T06:56:14;21.38;;;4.28;;
46597;SDS011;32318;48.858;8.252;2022-10-26T07:04:15;12.70;;;3.20;;
46597;SDS011;32318;48.858;8.252;2022-10-26T07:12:15;17.80;;;3.92;;
46597;SDS011;32318;48.858;8.252;2022-10-26T07:20:17;18.07;;;4.13;;
46597;SDS011;32318;48.858;8.252;2022-10-26T07:28:19;11.40;;;3.30;;
46597;SDS011;32318;48.858;8.252;2022-10-26T07:36:19;9.98;;;3.13;;
46597;SDS011;32318;48.858;8.252;2022-10-26T07:44:19;12.95;;;3.42;;
46597;SDS011;32318;48.858;8.252;2022-10-26T07:52:19;9.65;;;2.85;;
46597;SDS011;32318;48.858;8.252;2022-10-26T08:00:20;13.10;;;3.33;;
46597;SDS011;32318;48.858;8.252;2022-10-26T08:08:20;10.45;;;3.28;;
46597;SDS011;32318;48.858;8.252;2022-10-26T08:16:22;16.35;;;3.17;;
46597;SDS011;32318;48.858;8.252;2022-10-26T08:24:22;8.63;;;3.75;;
46597;SDS011;32318;48.858;8.252;2022-10-26T08:32:22;10.73;;;3.13;;
46597;SDS011;32318;48.858;8.252;2022-10-26T08:40:24;13.80;;;3.70;;
46597;SDS011;32318;48.858;8.252;2022-10-26T08:48:33;14.65;;;3.50;;
46597;SDS011;32318;48.858;8.252;2022-10-26T08:56:38;10.77;;;3.17;;
46597;SDS011;32318;48.858;8.252;2022-10-26T09:04:41;13.73;;;3.22;;
46597;SDS011;32318;48.858;8.252;2022-10-26T09:21:39;9.63;;;2.83;;
46597;SDS011;32318;48.858;8.252;2022-10-26T09:29:46;19.83;;;3.60;;
46597;SDS011;32318;48.858;8.252;2022-10-26T09:37:55;12.98;;;3.00;;
46597;SDS011;32318;48.858;8.252;2022-10-26T09:45:58;18.38;;;3.17;;
46597;SDS011;32318;48.858;8.252;2022-10-26T09:53:58;12.77;;;3.00;;
46597;SDS011;32318;48.858;8.252;2022-10-26T10:02:02;16.70;;;4.43;;
46597;SDS011;32318;48.858;8.252;2022-10-26T10:10:33;21.05;;;3.10;;
46597;SDS011;32318;48.858;8.252;2022-10-26T10:18:33;20.27;;;2.58;;
46597;SDS011;32318;48.858;8.252;2022-10-26T10:26:42;11.55;;;2.55;;
46597;SDS011;32318;48.858;8.252;2022-10-26T10:34:56;14.75;;;2.65;;
46597;SDS011;32318;48.858;8.252;2022-10-26T10:43:05;7.68;;;2.30;;
46597;SDS011;32318;48.858;8.252;2022-10-26T10:51:11;19.27;;;3.08;;
46597;SDS011;32318;48.858;8.252;2022-10-26T10:59:25;13.30;;;2.92;;
46597;SDS011;32318;48.858;8.252;2022-10-26T11:07:35;15.77;;;2.85;;
46597;SDS011;32318;48.858;8.252;2022-10-26T11:15:45;15.45;;;2.65;;
46597;SDS011;32318;48.858;8.252;2022-10-26T11:23:57;10.87;;;2.77;;
46597;SDS011;32318;48.858;8.252;2022-10-26T11:32:24;11.13;;;2.33;;
46597;SDS011;32318;48.858;8.252;2022-10-26T11:40:44;9.80;;;2.35;;
46597;SDS011;32318;48.858;8.252;2022-10-26T11:57:27;17.67;;;2.20;;
46597;SDS011;32318;48.858;8.252;2022-10-26T12:13:34;18.23;;;2.20;;
46597;SDS011;32318;48.858;8.252;2022-10-26T12:21:39;15.43;;;2.15;;
46597;SDS011;32318;48.858;8.252;2022-10-26T12:29:46;10.57;;;2.22;;
46597;SDS011;32318;48.858;8.252;2022-10-26T12:37:48;10.17;;;2.13;;
46597;SDS011;32318;48.858;8.252;2022-10-26T12:46:36;10.02;;;2.78;;
46597;SDS011;32318;48.858;8.252;2022-10-26T13:11:05;12.23;;;2.85;;
46597;SDS011;32318;48.858;8.252;2022-10-26T13:19:21;4.20;;;1.65;;
46597;SDS011;32318;48.858;8.252;2022-10-26T13:27:38;21.33;;;2.35;;
46597;SDS011;32318;48.858;8.252;2022-10-26T13:35:40;8.20;;;2.40;;
46597;SDS011;32318;48.858;8.252;2022-10-26T13:43:42;11.85;;;2.35;;
46597;SDS011;32318;48.858;8.252;2022-10-26T13:51:44;8.13;;;2.03;;
46597;SDS011;32318;48.858;8.252;2022-10-26T13:59:47;11.52;;;1.95;;
46597;SDS011;32318;48.858;8.252;2022-10-26T14:07:58;6.40;;;1.77;;
46597;SDS011;32318;48.858;8.252;2022-10-26T14:15:58;8.43;;;2.50;;
46597;SDS011;32318;48.858;8.252;2022-10-26T14:23:59;5.40;;;1.92;;
46597;SDS011;32318;48.858;8.252;2022-10-26T14:32:18;13.20;;;2.45;;
46597;SDS011;32318;48.858;8.252;2022-10-26T14:40:29;12.65;;;2.40;;
46597;SDS011;32318;48.858;8.252;2022-10-26T14:48:34;14.73;;;2.70;;
46597;SDS011;32318;48.858;8.252;2022-10-26T15:04:36;8.70;;;2.55;;
46597;SDS011;32318;48.858;8.252;2022-10-26T15:12:37;19.13;;;2.60;;
46597;SDS011;32318;48.858;8.252;2022-10-26T15:20:38;12.87;;;3.07;;
46597;SDS011;32318;48.858;8.252;2022-10-26T15:28:53;13.63;;;3.05;;
46597;SDS011;32318;48.858;8.252;2022-10-26T15:36:53;13.60;;;2.58;;
46597;SDS011;32318;48.858;8.252;2022-10-26T15:44:55;15.68;;;3.08;;
46597;SDS011;32318;48.858;8.252;2022-10-26T15:52:58;13.27;;;2.50;;
46597;SDS011;32318;48.858;8.252;2022-10-26T16:01:00;13.90;;;2.80;;
46597;SDS011;32318;48.858;8.252;2022-10-26T16:09:02;14.05;;;2.72;;
46597;SDS011;32318;48.858;8.252;2022-10-26T16:17:06;11.75;;;2.33;;
46597;SDS011;32318;48.858;8.252;2022-10-26T16:25:07;15.40;;;3.55;;
46597;SDS011;32318;48.858;8.252;2022-10-26T16:33:07;12.00;;;3.00;;
46597;SDS011;32318;48.858;8.252;2022-10-26T16:41:12;17.52;;;3.15;;
46597;SDS011;32318;48.858;8.252;2022-10-26T16:49:13;11.77;;;3.15;;
46597;SDS011;32318;48.858;8.252;2022-10-26T16:57:13;11.15;;;3.47;;
46597;SDS011;32318;48.858;8.252;2022-10-26T17:05:14;8.90;;;3.50;;
46597;SDS011;32318;48.858;8.252;2022-10-26T17:13:14;20.02;;;3.47;;
46597;SDS011;32318;48.858;8.252;2022-10-26T17:21:15;8.18;;;3.60;;
46597;SDS011;32318;48.858;8.252;2022-10-26T17:29:17;14.88;;;3.15;;
46597;SDS011;32318;48.858;8.252;2022-10-26T17:37:17;21.42;;;3.47;;
46597;SDS011;32318;48.858;8.252;2022-10-26T17:45:17;18.13;;;3.22;;
46597;SDS011;32318;48.858;8.252;2022-10-26T17:53:18;20.27;;;3.83;;
46597;SDS011;32318;48.858;8.252;2022-10-26T18:01:18;16.73;;;3.92;;
46597;SDS011;32318;48.858;8.252;2022-10-26T18:09:18;11.30;;;3.53;;
46597;SDS011;32318;48.858;8.252;2022-10-26T18:17:19;14.02;;;3.40;;
46597;SDS011;32318;48.858;8.252;2022-10-26T18:25:19;17.95;;;3.67;;
46597;SDS011;32318;48.858;8.252;2022-10-26T18:33:19;13.90;;;3.45;;
46597;SDS011;32318;48.858;8.252;2022-10-26T18:41:20;17.02;;;3.85;;
46597;SDS011;32318;48.858;8.252;2022-10-26T18:49:21;12.23;;;3.72;;
46597;SDS011;32318;48.858;8.252;2022-10-26T18:57:21;24.13;;;4.43;;
46597;SDS011;32318;48.858;8.252;2022-10-26T19:05:27;19.20;;;4.03;;
46597;SDS011;32318;48.858;8.252;2022-10-26T19:13:27;26.27;;;4.20;;
46597;SDS011;32318;48.858;8.252;2022-10-26T19:21:29;20.23;;;3.97;;
46597;SDS011;32318;48.858;8.252;2022-10-26T19:29:29;24.60;;;4.28;;
46597;SDS011;32318;48.858;8.252;2022-10-26T19:37:29;11.73;;;3.30;;
46597;SDS011;32318;48.858;8.252;2022-10-26T19:45:30;13.93;;;3.70;;
46597;SDS011;32318;48.858;8.252;2022-10-26T19:53:30;16.58;;;3.78;;
46597;SDS011;32318;48.858;8.252;2022-10-26T20:01:31;18.03;;;3.83;;
46597;SDS011;32318;48.858;8.252;2022-10-26T20:09:31;13.93;;;4.03;;
46597;SDS011;32318;48.858;8.252;2022-10-26T20:17:33;26.35;;;5.72;;
46597;SDS011;32318;48.858;8.252;2022-10-26T20:25:33;15.50;;;4.45;;
46597;SDS011;32318;48.858;8.252;2022-10-26T20:33:34;18.10;;;5.03;;
46597;SDS011;32318;48.858;8.252;2022-10-26T20:41:39;12.32;;;3.53;;
46597;SDS011;32318;48.858;8.252;2022-10-26T20:49:41;19.55;;;4.20;;
46597;SDS011;32318;48.858;8.252;2022-10-26T20:57:44;24.30;;;4.65;;
46597;SDS011;32318;48.858;8.252;2022-10-26T21:05:52;16.55;;;4.13;;
46597;SDS011;32318;48.858;8.252;2022-10-26T21:13:53;23.93;;;3.90;;
46597;SDS011;32318;48.858;8.252;2022-10-26T21:21:53;22.40;;;5.37;;
46597;SDS011;32318;48.858;8.252;2022-10-26T21:29:53;25.15;;;4.00;;
46597;SDS011;32318;48.858;8.252;2022-10-26T21:37:54;17.40;;;4.03;;
46597;SDS011;32318;48.858;8.252;2022-10-26T21:45:55;22.50;;;4.03;;
46597;SDS011;32318;48.858;8.252;2022-10-26T21:53:57;20.70;;;4.45;;
46597;SDS011;32318;48.858;8.252;2022-10-26T22:01:57;12.43;;;3.10;;
46597;SDS011;32318;48.858;8.252;2022-10-26T22:09:57;23.98;;;4.00;;
46597;SDS011;32318;48.858;8.252;2022-10-26T22:17:58;19.23;;;3.50;;
46597;SDS011;32318;48.858;8.252;2022-10-26T22:26:02;17.48;;;3.17;;
46597;SDS011;32318;48.858;8.252;2022-10-26T22:34:09;14.13;;;3.45;;
46597;SDS011;32318;48.858;8.252;2022-10-26T22:42:13;16.40;;;3.05;;
46597;SDS011;32318;48.858;8.252;2022-10-26T22:50:13;24.75;;;3.08;;
46597;SDS011;32318;48.858;8.252;2022-10-26T22:58:14;12.80;;;3.65;;
46597;SDS011;32318;48.858;8.252;2022-10-26T23:06:16;18.23;;;3.90;;
46597;SDS011;32318;48.858;8.252;2022-10-26T23:14:17;11.68;;;3.22;;
46597;SDS011;32318;48.858;8.252;2022-10-26T23:22:19;18.27;;;3.97;;
46597;SDS011;32318;48.858;8.252;2022-10-26T23:30:19;12.65;;;3.05;;
46597;SDS011;32318;48.858;8.252;2022-10-26T23:38:19;19.95;;;3.65;;
46597;SDS011;32318;48.858;8.252;2022-10-26T23:46:20;17.40;;;3.20;;
46597;SDS011;32318;48.858;8.252;2022-10-26T23:54:20;13.48;;;3.13;;
